createdAt,value
2022-07-31T00:00:13.804Z,15.80
2022-07-31T00:02:40.621Z,15.80
2022-07-31T00:05:07.662Z,15.80
2022-07-31T00:07:34.760Z,15.80
2022-07-31T00:10:01.549Z,15.80
2022-07-31T00:12:28.367Z,15.80
2022-07-31T00:14:55.374Z,15.80
2022-07-31T00:17:22.331Z,15.80
2022-07-31T00:19:49.487Z,15.80
2022-07-31T00:22:16.280Z,15.80
2022-07-31T00:24:43.156Z,15.80
2022-07-31T00:27:10.806Z,15.80
2022-07-31T00:29:38.587Z,15.80
2022-07-31T00:32:05.787Z,15.80
2022-07-31T00:34:32.715Z,15.80
2022-07-31T00:37:02.479Z,15.80
2022-07-31T00:39:30.945Z,15.80
2022-07-31T00:41:58.096Z,15.80
2022-07-31T00:44:26.036Z,15.80
2022-07-31T00:46:53.317Z,15.80
2022-07-31T00:49:20.620Z,15.80
2022-07-31T00:51:48.113Z,15.90
2022-07-31T00:54:22.684Z,15.90
2022-07-31T00:56:50.707Z,15.90
2022-07-31T00:59:24.531Z,15.80
2022-07-31T01:01:52.282Z,15.80
2022-07-31T01:04:19.816Z,15.80
2022-07-31T01:06:47.635Z,15.80
2022-07-31T01:09:15.332Z,15.80
2022-07-31T01:11:58.072Z,15.70
2022-07-31T01:14:29.678Z,15.70
2022-07-31T01:16:59.843Z,15.70
2022-07-31T01:19:43.167Z,15.70
2022-07-31T01:22:44.131Z,15.70
2022-07-31T01:25:24.717Z,15.70
2022-07-31T01:28:15.203Z,15.70
2022-07-31T01:30:53.005Z,15.70
2022-07-31T01:33:33.364Z,15.60
2022-07-31T01:36:07.834Z,15.70
2022-07-31T01:38:45.438Z,15.70
2022-07-31T01:41:15.761Z,15.70
2022-07-31T01:43:46.669Z,15.70
2022-07-31T01:46:16.746Z,15.70
2022-07-31T01:48:44.650Z,15.60
2022-07-31T01:51:13.391Z,15.60
2022-07-31T01:53:44.612Z,15.70
2022-07-31T01:56:11.911Z,15.60
2022-07-31T01:58:41.303Z,15.70
2022-07-31T02:01:19.066Z,15.70
2022-07-31T02:03:51.543Z,15.70
2022-07-31T02:06:24.830Z,15.70
2022-07-31T02:08:53.916Z,15.70
2022-07-31T02:11:22.849Z,15.70
2022-07-31T02:13:51.308Z,15.70
2022-07-31T02:16:19.768Z,15.70
2022-07-31T02:18:52.299Z,15.80
2022-07-31T02:21:25.667Z,15.80
2022-07-31T02:23:53.323Z,15.80
2022-07-31T02:26:20.671Z,15.80
2022-07-31T02:28:48.241Z,15.80
2022-07-31T02:31:17.556Z,15.90
2022-07-31T02:33:48.325Z,15.80
2022-07-31T02:36:20.267Z,15.80
2022-07-31T02:38:48.777Z,15.80
2022-07-31T02:41:17.746Z,15.80
2022-07-31T02:43:46.407Z,15.80
2022-07-31T02:46:20.006Z,15.80
2022-07-31T02:48:47.281Z,15.70
2022-07-31T02:51:15.197Z,15.70
2022-07-31T02:53:42.555Z,15.70
2022-07-31T02:56:10.209Z,15.70
2022-07-31T02:58:43.023Z,15.60
2022-07-31T03:01:21.638Z,15.60
2022-07-31T03:03:48.439Z,15.60
2022-07-31T03:06:16.214Z,15.60
2022-07-31T03:08:43.454Z,15.50
2022-07-31T03:11:12.952Z,15.50
2022-07-31T03:13:43.614Z,15.50
2022-07-31T03:16:13.786Z,15.50
2022-07-31T03:18:41.524Z,15.50
2022-07-31T03:21:11.885Z,15.50
2022-07-31T03:23:39.605Z,15.50
2022-07-31T03:26:15.477Z,15.50
2022-07-31T03:28:43.177Z,15.50
2022-07-31T03:31:10.503Z,15.40
2022-07-31T03:33:37.530Z,15.50
2022-07-31T03:36:05.170Z,15.40
2022-07-31T03:38:39.484Z,15.40
2022-07-31T03:41:11.820Z,15.40
2022-07-31T03:43:47.584Z,15.30
2022-07-31T03:46:19.946Z,15.30
2022-07-31T03:48:48.359Z,15.30
2022-07-31T03:51:15.798Z,15.30
2022-07-31T03:53:43.903Z,15.30
2022-07-31T03:56:25.896Z,15.30
2022-07-31T03:58:53.302Z,15.40
2022-07-31T04:01:21.843Z,15.40
2022-07-31T04:04:00.536Z,15.40
2022-07-31T04:06:50.686Z,15.50
2022-07-31T04:09:18.972Z,15.60
2022-07-31T04:11:47.603Z,15.60
2022-07-31T04:14:14.586Z,15.80
2022-07-31T04:16:41.688Z,15.80
2022-07-31T04:19:08.529Z,15.90
2022-07-31T04:21:35.459Z,16.00
2022-07-31T04:24:02.304Z,16.10
2022-07-31T04:26:49.699Z,16.20
2022-07-31T04:29:17.938Z,16.40
2022-07-31T04:31:45.935Z,16.50
2022-07-31T04:34:16.716Z,16.60
2022-07-31T04:36:43.970Z,16.80
2022-07-31T04:39:10.743Z,16.90
2022-07-31T04:41:37.571Z,17.10
2022-07-31T04:44:04.554Z,17.30
2022-07-31T04:46:48.740Z,17.40
2022-07-31T04:49:15.825Z,17.60
2022-07-31T04:51:42.976Z,17.70
2022-07-31T04:54:11.258Z,17.80
2022-07-31T04:56:42.211Z,17.80
2022-07-31T04:59:11.987Z,17.80
2022-07-31T05:01:43.299Z,17.80
2022-07-31T05:04:11.689Z,17.80
2022-07-31T05:06:41.959Z,17.80
2022-07-31T05:09:15.083Z,17.90
2022-07-31T05:11:46.814Z,17.90
2022-07-31T05:14:14.879Z,17.90
2022-07-31T05:16:42.018Z,18.00
2022-07-31T05:19:13.882Z,18.00
2022-07-31T05:21:47.052Z,18.00
2022-07-31T05:24:34.299Z,18.00
2022-07-31T05:27:10.468Z,18.00
2022-07-31T05:29:39.433Z,18.10
2022-07-31T05:32:06.720Z,18.10
2022-07-31T05:34:35.267Z,18.20
2022-07-31T05:37:02.414Z,18.30
2022-07-31T05:39:31.519Z,18.40
2022-07-31T05:42:18.806Z,18.40
2022-07-31T05:45:07.398Z,18.50
2022-07-31T05:47:40.651Z,18.50
2022-07-31T05:50:10.071Z,18.40
2022-07-31T05:52:37.475Z,18.50
2022-07-31T05:55:39.610Z,18.60
2022-07-31T05:58:20.273Z,18.70
2022-07-31T06:00:50.168Z,18.80
2022-07-31T06:03:22.345Z,18.80
2022-07-31T06:06:00.600Z,18.90
2022-07-31T06:08:27.413Z,18.90
2022-07-31T06:10:56.495Z,18.90
2022-07-31T06:13:25.910Z,18.90
2022-07-31T06:15:53.052Z,19.00
2022-07-31T06:18:20.993Z,19.00
2022-07-31T06:20:47.889Z,19.00
2022-07-31T06:23:22.916Z,19.00
2022-07-31T06:26:04.914Z,19.00
2022-07-31T06:28:47.671Z,19.10
2022-07-31T06:31:21.597Z,19.30
2022-07-31T06:33:51.170Z,19.40
2022-07-31T06:36:22.387Z,19.50
2022-07-31T06:38:59.417Z,19.50
2022-07-31T06:41:44.534Z,19.70
2022-07-31T06:44:26.326Z,19.80
2022-07-31T06:47:13.872Z,19.90
2022-07-31T06:49:55.608Z,20.00
2022-07-31T06:52:26.305Z,20.20
2022-07-31T06:54:53.915Z,20.30
2022-07-31T06:57:20.842Z,20.30
2022-07-31T06:59:47.793Z,20.30
2022-07-31T07:02:14.674Z,20.60
2022-07-31T07:04:56.220Z,21.00
2022-07-31T07:07:31.649Z,21.90
2022-07-31T07:09:59.617Z,23.60
2022-07-31T07:13:01.762Z,25.20
2022-07-31T07:15:33.398Z,26.60
2022-07-31T07:18:00.237Z,26.90
2022-07-31T07:20:36.827Z,27.30
2022-07-31T07:23:03.973Z,27.60
2022-07-31T07:25:37.041Z,27.60
2022-07-31T07:28:13.499Z,27.70
2022-07-31T07:30:42.753Z,27.70
2022-07-31T07:33:10.957Z,27.50
2022-07-31T07:35:39.442Z,27.10
2022-07-31T07:38:12.539Z,26.80
2022-07-31T07:40:43.053Z,26.40
2022-07-31T07:43:10.022Z,26.20
2022-07-31T07:45:37.677Z,25.90
2022-07-31T07:48:06.772Z,25.80
2022-07-31T07:51:06.386Z,25.70
2022-07-31T07:53:51.864Z,25.40
2022-07-31T07:56:41.569Z,25.20
2022-07-31T07:59:43.662Z,25.40
2022-07-31T08:02:29.168Z,26.00
2022-07-31T08:04:56.747Z,26.50
2022-07-31T08:07:42.590Z,26.80
2022-07-31T08:10:28.344Z,27.30
2022-07-31T08:13:03.119Z,28.50
2022-07-31T08:15:48.793Z,29.70
2022-07-31T08:18:33.411Z,30.90
2022-07-31T08:21:00.291Z,31.80
2022-07-31T08:23:27.941Z,32.30
2022-07-31T08:25:55.379Z,32.60
2022-07-31T08:28:25.250Z,32.90
2022-07-31T08:30:53.941Z,33.20
2022-07-31T08:33:22.050Z,33.30
2022-07-31T08:35:55.514Z,33.30
2022-07-31T08:38:22.544Z,33.20
2022-07-31T08:41:15.678Z,33.10
2022-07-31T08:44:00.098Z,33.00
2022-07-31T08:46:31.070Z,33.50
2022-07-31T08:48:59.346Z,34.30
2022-07-31T08:51:27.578Z,34.90
2022-07-31T08:54:13.709Z,35.40
2022-07-31T08:56:42.648Z,35.80
2022-07-31T08:59:09.976Z,35.90
2022-07-31T09:01:38.841Z,36.00
2022-07-31T09:04:05.918Z,36.50
2022-07-31T09:06:32.792Z,36.80
2022-07-31T09:08:59.779Z,36.80
2022-07-31T09:11:26.606Z,36.40
2022-07-31T09:14:04.382Z,35.90
2022-07-31T09:16:47.227Z,35.80
2022-07-31T09:19:52.956Z,35.30
2022-07-31T09:22:10.370Z,34.90
2022-07-31T09:24:39.438Z,34.80
2022-07-31T09:27:09.425Z,34.60
2022-07-31T09:29:40.017Z,34.40
2022-07-31T09:32:18.438Z,34.60
2022-07-31T09:35:13.272Z,34.90
2022-07-31T09:37:46.247Z,35.30
2022-07-31T09:40:39.985Z,35.40
2022-07-31T09:43:56.981Z,35.30
2022-07-31T09:46:24.138Z,34.60
2022-07-31T09:48:59.830Z,34.10
2022-07-31T09:51:38.656Z,34.20
2022-07-31T09:54:05.978Z,34.10
2022-07-31T09:57:15.887Z,33.90
2022-07-31T09:59:45.915Z,34.40
2022-07-31T10:02:15.524Z,34.90
2022-07-31T10:04:47.801Z,35.10
2022-07-31T10:07:24.422Z,34.90
2022-07-31T10:10:05.267Z,34.70
2022-07-31T10:12:45.727Z,34.90
2022-07-31T10:15:16.668Z,35.00
2022-07-31T10:17:58.408Z,35.10
2022-07-31T10:20:55.769Z,35.10
2022-07-31T10:23:46.914Z,34.90
2022-07-31T10:26:15.404Z,34.80
2022-07-31T10:28:43.821Z,34.90
2022-07-31T10:31:12.417Z,34.90
2022-07-31T10:33:44.162Z,34.70
2022-07-31T10:36:37.617Z,34.80
2022-07-31T10:39:31.405Z,34.50
2022-07-31T10:42:45.536Z,33.90
2022-07-31T10:45:14.381Z,34.00
2022-07-31T10:48:01.000Z,34.10
2022-07-31T10:51:04.811Z,34.10
2022-07-31T10:54:01.686Z,34.40
2022-07-31T10:57:01.358Z,34.90
2022-07-31T10:59:44.227Z,35.10
2022-07-31T11:02:48.662Z,35.40
2022-07-31T11:06:02.601Z,36.10
2022-07-31T11:08:49.149Z,36.10
2022-07-31T11:11:36.746Z,35.90
2022-07-31T11:14:38.784Z,35.90
2022-07-31T11:18:16.866Z,35.50
2022-07-31T11:20:32.374Z,34.20
2022-07-31T11:23:03.197Z,34.30
2022-07-31T11:25:34.645Z,34.60
2022-07-31T11:28:27.483Z,34.80
2022-07-31T11:31:06.412Z,35.50
2022-07-31T11:33:43.522Z,36.10
2022-07-31T11:36:20.056Z,36.40
2022-07-31T11:38:49.754Z,36.40
2022-07-31T11:41:22.132Z,36.20
2022-07-31T11:43:52.101Z,35.80
2022-07-31T11:46:33.310Z,35.40
2022-07-31T11:49:02.015Z,35.20
2022-07-31T11:51:29.612Z,34.80
2022-07-31T11:53:57.799Z,34.50
2022-07-31T11:56:27.233Z,34.40
2022-07-31T11:58:56.549Z,34.20
2022-07-31T12:01:29.388Z,34.00
2022-07-31T12:04:07.489Z,34.00
2022-07-31T12:06:36.865Z,34.10
2022-07-31T12:09:04.193Z,33.70
2022-07-31T12:11:31.068Z,33.00
2022-07-31T12:13:59.296Z,32.60
2022-07-31T12:16:26.246Z,32.30
2022-07-31T12:18:59.579Z,32.40
2022-07-31T12:21:35.773Z,32.80
2022-07-31T12:24:10.439Z,33.40
2022-07-31T12:26:37.537Z,34.20
2022-07-31T12:29:08.644Z,34.80
2022-07-31T12:31:51.333Z,35.40
2022-07-31T12:34:41.472Z,35.60
2022-07-31T12:37:11.342Z,35.00
2022-07-31T12:40:01.439Z,34.50
2022-07-31T12:42:40.762Z,34.10
2022-07-31T12:45:19.576Z,34.50
2022-07-31T12:47:54.143Z,34.90
2022-07-31T12:50:21.887Z,35.80
2022-07-31T12:52:48.599Z,36.60
2022-07-31T12:55:17.225Z,36.70
2022-07-31T12:57:51.577Z,35.60
2022-07-31T13:00:22.671Z,34.50
2022-07-31T13:02:50.685Z,33.40
2022-07-31T13:05:17.743Z,32.70
2022-07-31T13:07:44.670Z,32.30
2022-07-31T13:10:21.463Z,32.10
2022-07-31T13:12:51.307Z,31.70
2022-07-31T13:15:21.044Z,31.10
2022-07-31T13:17:50.820Z,30.70
2022-07-31T13:20:18.533Z,30.40
2022-07-31T13:22:45.428Z,30.20
2022-07-31T13:25:12.406Z,30.10
2022-07-31T13:27:39.512Z,30.10
2022-07-31T13:30:09.068Z,30.00
2022-07-31T13:32:35.857Z,29.70
2022-07-31T13:35:24.096Z,29.70
2022-07-31T13:37:49.570Z,29.70
2022-07-31T13:40:16.469Z,29.60
2022-07-31T13:42:43.381Z,29.60
2022-07-31T13:45:10.544Z,29.60
2022-07-31T13:47:50.727Z,29.60
2022-07-31T13:50:19.300Z,29.70
2022-07-31T13:52:46.137Z,29.80
2022-07-31T13:55:13.223Z,29.80
2022-07-31T13:57:40.095Z,29.70
2022-07-31T14:00:08.804Z,29.70
2022-07-31T14:02:35.586Z,30.00
2022-07-31T14:05:02.681Z,30.10
2022-07-31T14:07:45.715Z,30.20
2022-07-31T14:10:20.676Z,30.40
2022-07-31T14:12:48.266Z,30.70
2022-07-31T14:15:16.638Z,31.10
2022-07-31T14:17:43.544Z,31.10
2022-07-31T14:20:11.123Z,30.90
2022-07-31T14:22:37.860Z,30.70
2022-07-31T14:25:05.341Z,30.50
2022-07-31T14:27:32.071Z,30.70
2022-07-31T14:29:58.773Z,30.70
2022-07-31T14:32:25.552Z,30.20
2022-07-31T14:34:52.439Z,29.80
2022-07-31T14:37:20.569Z,29.50
2022-07-31T14:39:47.831Z,29.50
2022-07-31T14:42:14.667Z,29.70
2022-07-31T14:44:42.557Z,29.90
2022-07-31T14:47:11.086Z,30.20
2022-07-31T14:50:09.203Z,30.30
2022-07-31T14:52:25.412Z,30.20
2022-07-31T14:54:54.025Z,30.10
2022-07-31T14:57:22.544Z,30.10
2022-07-31T14:59:50.257Z,29.80
2022-07-31T15:02:22.333Z,29.60
2022-07-31T15:04:51.040Z,29.50
2022-07-31T15:07:36.686Z,29.40
2022-07-31T15:10:06.275Z,29.10
2022-07-31T15:12:33.508Z,28.90
2022-07-31T15:15:01.370Z,28.80
2022-07-31T15:17:28.371Z,28.60
2022-07-31T15:19:55.356Z,28.30
2022-07-31T15:22:22.075Z,28.20
2022-07-31T15:24:50.123Z,28.10
2022-07-31T15:27:24.135Z,28.00
2022-07-31T15:30:03.886Z,28.00
2022-07-31T15:32:33.870Z,27.90
2022-07-31T15:35:00.599Z,27.90
2022-07-31T15:37:27.415Z,27.70
2022-07-31T15:40:02.255Z,27.60
2022-07-31T15:42:34.585Z,27.50
2022-07-31T15:45:02.415Z,27.40
2022-07-31T15:47:29.368Z,27.40
2022-07-31T15:49:56.158Z,27.30
2022-07-31T15:52:22.885Z,27.20
2022-07-31T15:54:52.258Z,27.20
2022-07-31T15:57:23.207Z,27.20
2022-07-31T15:59:51.254Z,27.30
2022-07-31T16:02:18.075Z,27.30
2022-07-31T16:04:52.845Z,27.30
2022-07-31T16:08:32.162Z,27.30
2022-07-31T16:10:14.883Z,27.20
2022-07-31T16:12:45.091Z,27.10
2022-07-31T16:15:12.670Z,27.00
2022-07-31T16:17:40.094Z,27.00
2022-07-31T16:20:12.926Z,27.00
2022-07-31T16:22:51.304Z,26.90
2022-07-31T16:25:22.553Z,26.90
2022-07-31T16:27:49.322Z,27.00
2022-07-31T16:30:16.256Z,27.00
2022-07-31T16:32:43.587Z,27.00
2022-07-31T16:35:11.875Z,26.90
2022-07-31T16:37:51.680Z,26.80
2022-07-31T16:40:28.703Z,26.70
2022-07-31T16:43:48.090Z,26.60
2022-07-31T16:45:50.182Z,26.60
2022-07-31T16:48:16.978Z,26.50
2022-07-31T16:50:44.004Z,26.50
2022-07-31T16:53:13.606Z,26.50
2022-07-31T16:56:00.870Z,26.40
2022-07-31T16:58:28.714Z,26.30
2022-07-31T17:00:55.657Z,26.20
2022-07-31T17:03:59.464Z,26.10
2022-07-31T17:06:10.505Z,26.10
2022-07-31T17:08:38.282Z,26.10
2022-07-31T17:11:05.536Z,26.00
2022-07-31T17:13:32.589Z,25.90
2022-07-31T17:15:59.498Z,25.90
2022-07-31T17:18:26.378Z,25.80
2022-07-31T17:20:56.753Z,25.80
2022-07-31T17:23:43.629Z,25.70
2022-07-31T17:26:22.115Z,25.60
2022-07-31T17:28:50.564Z,25.60
2022-07-31T17:31:18.796Z,25.50
2022-07-31T17:33:59.058Z,25.50
2022-07-31T17:36:29.435Z,25.50
2022-07-31T17:38:57.553Z,25.40
2022-07-31T17:41:26.051Z,25.40
2022-07-31T17:43:54.609Z,25.30
2022-07-31T17:46:34.360Z,25.30
2022-07-31T17:49:04.626Z,25.30
2022-07-31T17:51:31.464Z,25.30
2022-07-31T17:53:59.503Z,25.30
2022-07-31T17:56:27.134Z,25.30
2022-07-31T17:58:55.460Z,25.30
2022-07-31T18:01:26.941Z,25.10
2022-07-31T18:03:56.006Z,25.00
2022-07-31T18:06:22.848Z,25.00
2022-07-31T18:08:50.081Z,24.90
2022-07-31T18:11:17.304Z,24.80
2022-07-31T18:13:48.358Z,24.70
2022-07-31T18:16:18.739Z,24.60
2022-07-31T18:18:46.044Z,24.50
2022-07-31T18:21:13.374Z,24.40
2022-07-31T18:23:47.174Z,24.30
2022-07-31T18:26:14.763Z,24.30
2022-07-31T18:28:41.769Z,24.20
2022-07-31T18:31:13.971Z,24.20
2022-07-31T18:33:55.387Z,24.10
2022-07-31T18:36:22.165Z,24.10
2022-07-31T18:38:48.868Z,24.00
2022-07-31T18:41:15.666Z,23.90
2022-07-31T18:43:42.709Z,23.90
2022-07-31T18:46:09.626Z,23.80
2022-07-31T18:48:36.438Z,23.80
2022-07-31T18:51:05.152Z,23.70
2022-07-31T18:53:32.984Z,23.70
2022-07-31T18:55:59.755Z,23.60
2022-07-31T18:58:26.659Z,23.50
2022-07-31T19:00:55.217Z,23.50
2022-07-31T19:03:23.511Z,23.40
2022-07-31T19:05:52.814Z,23.30
2022-07-31T19:08:20.728Z,23.30
2022-07-31T19:10:49.579Z,23.20
2022-07-31T19:13:19.058Z,23.20
2022-07-31T19:15:52.852Z,23.20
2022-07-31T19:18:27.986Z,23.20
2022-07-31T19:21:23.412Z,23.10
2022-07-31T19:23:46.357Z,23.10
2022-07-31T19:26:13.126Z,23.00
2022-07-31T19:28:41.832Z,23.00
2022-07-31T19:31:09.602Z,22.90
2022-07-31T19:33:37.665Z,22.80
2022-07-31T19:36:05.404Z,22.70
2022-07-31T19:38:34.020Z,22.50
2022-07-31T19:41:00.970Z,22.40
2022-07-31T19:43:28.495Z,22.30
2022-07-31T19:45:58.804Z,22.20
2022-07-31T19:48:44.052Z,22.00
2022-07-31T19:51:12.027Z,22.00
2022-07-31T19:53:39.502Z,21.90
2022-07-31T19:56:06.621Z,21.90
2022-07-31T19:58:34.905Z,21.90
2022-07-31T20:01:05.719Z,21.90
2022-07-31T20:03:33.215Z,21.90
2022-07-31T20:06:00.827Z,21.80
2022-07-31T20:08:29.610Z,21.80
2022-07-31T20:11:03.686Z,21.80
2022-07-31T20:13:32.717Z,21.70
2022-07-31T20:15:59.974Z,21.60
2022-07-31T20:18:28.585Z,21.40
2022-07-31T20:21:02.580Z,21.30
2022-07-31T20:23:30.997Z,21.30
2022-07-31T20:25:58.645Z,21.20
2022-07-31T20:28:26.417Z,21.10
2022-07-31T20:30:53.407Z,21.10
2022-07-31T20:33:20.372Z,21.10
2022-07-31T20:35:48.515Z,21.10
2022-07-31T20:38:21.173Z,21.10
2022-07-31T20:40:53.642Z,21.00
2022-07-31T20:43:26.706Z,21.00
2022-07-31T20:45:57.282Z,20.90
2022-07-31T20:48:32.410Z,20.80
2022-07-31T20:51:01.444Z,20.70
2022-07-31T20:53:29.040Z,20.50
2022-07-31T20:55:56.484Z,20.40
2022-07-31T20:58:24.318Z,20.40
2022-07-31T21:00:52.938Z,20.30
2022-07-31T21:03:20.538Z,20.20
2022-07-31T21:05:48.023Z,20.20
2022-07-31T21:08:15.447Z,20.10
2022-07-31T21:10:42.582Z,20.10
2022-07-31T21:13:10.136Z,20.10
2022-07-31T21:15:43.634Z,20.00
2022-07-31T21:18:13.512Z,20.10
2022-07-31T21:20:51.523Z,20.10
2022-07-31T21:23:24.651Z,20.00
2022-07-31T21:25:52.603Z,19.90
2022-07-31T21:28:20.073Z,19.80
2022-07-31T21:30:47.471Z,19.80
2022-07-31T21:33:14.654Z,19.70
2022-07-31T21:35:41.797Z,19.70
2022-07-31T21:38:12.658Z,19.70
2022-07-31T21:40:40.557Z,19.60
2022-07-31T21:43:08.492Z,19.60
2022-07-31T21:45:51.035Z,19.60
2022-07-31T21:48:25.547Z,19.60
2022-07-31T21:50:53.192Z,19.60
2022-07-31T21:53:20.102Z,19.70
2022-07-31T21:55:46.833Z,19.60
2022-07-31T21:58:13.689Z,19.60
2022-07-31T22:00:40.710Z,19.60
2022-07-31T22:03:08.066Z,19.70
2022-07-31T22:05:53.577Z,19.70
2022-07-31T22:08:20.934Z,19.70
2022-07-31T22:10:49.990Z,19.70
2022-07-31T22:13:17.578Z,19.70
2022-07-31T22:15:54.227Z,19.70
2022-07-31T22:18:32.372Z,19.70
2022-07-31T22:21:00.602Z,19.70
2022-07-31T22:23:28.317Z,19.80
2022-07-31T22:25:55.729Z,19.70
2022-07-31T22:28:24.023Z,19.70
2022-07-31T22:30:51.374Z,19.70
2022-07-31T22:33:18.540Z,19.70
2022-07-31T22:35:45.518Z,19.70
2022-07-31T22:38:27.419Z,19.70
2022-07-31T22:40:54.159Z,19.70
2022-07-31T22:44:10.710Z,19.70
2022-07-31T22:46:11.065Z,19.70
2022-07-31T22:48:38.830Z,19.80
2022-07-31T22:51:05.960Z,19.70
2022-07-31T22:53:32.790Z,19.80
2022-07-31T22:55:59.470Z,19.80
2022-07-31T22:58:26.154Z,19.80
2022-07-31T23:00:53.035Z,19.70
2022-07-31T23:03:19.760Z,19.80
2022-07-31T23:06:28.133Z,19.80
2022-07-31T23:08:33.442Z,19.80
2022-07-31T23:11:00.209Z,19.70
2022-07-31T23:13:27.057Z,19.70
2022-07-31T23:15:53.767Z,19.70
2022-07-31T23:18:20.520Z,19.70
2022-07-31T23:20:47.191Z,19.70
2022-07-31T23:23:13.911Z,19.70
2022-07-31T23:25:40.599Z,19.60
2022-07-31T23:28:07.421Z,19.70
2022-07-31T23:30:34.153Z,19.60
2022-07-31T23:33:00.945Z,19.60
2022-07-31T23:35:27.711Z,19.60
2022-07-31T23:37:54.531Z,19.60
2022-07-31T23:40:21.341Z,19.60
2022-07-31T23:42:48.812Z,19.50
2022-07-31T23:45:15.747Z,19.50
2022-07-31T23:47:45.823Z,19.50
2022-07-31T23:50:14.898Z,19.40
2022-07-31T23:52:42.624Z,19.40
2022-07-31T23:55:09.682Z,19.30
2022-07-31T23:57:36.739Z,19.30
